createdAt,value
2022-10-10T00:00:06.153Z,3.77
2022-10-10T00:02:33.749Z,3.40
2022-10-10T00:05:01.234Z,4.00
2022-10-10T00:07:30.053Z,3.20
2022-10-10T00:09:57.527Z,3.67
2022-10-10T00:12:25.037Z,3.37
2022-10-10T00:14:52.515Z,3.70
2022-10-10T00:17:20.036Z,2.93
2022-10-10T00:19:47.508Z,3.67
2022-10-10T00:22:15.027Z,3.43
2022-10-10T00:24:43.925Z,3.80
2022-10-10T00:27:11.423Z,3.67
2022-10-10T00:29:38.871Z,3.40
2022-10-10T00:32:06.439Z,3.87
2022-10-10T00:34:33.884Z,3.03
2022-10-10T00:37:01.423Z,3.37
2022-10-10T00:39:28.884Z,3.10
2022-10-10T00:41:57.780Z,3.13
2022-10-10T00:44:25.259Z,2.87
2022-10-10T00:46:52.813Z,3.27
2022-10-10T00:49:22.236Z,3.07
2022-10-10T00:51:51.802Z,3.47
2022-10-10T00:54:21.082Z,3.27
2022-10-10T00:56:52.756Z,3.60
2022-10-10T00:59:22.167Z,3.40
2022-10-10T01:01:49.657Z,3.80
2022-10-10T01:04:31.679Z,3.27
2022-10-10T01:06:59.469Z,3.20
2022-10-10T01:09:27.181Z,3.23
2022-10-10T01:11:58.988Z,3.60
2022-10-10T01:14:35.678Z,3.33
2022-10-10T01:17:06.940Z,3.50
2022-10-10T01:19:54.844Z,3.10
2022-10-10T01:22:28.049Z,2.90
2022-10-10T01:24:59.090Z,3.20
2022-10-10T01:27:32.800Z,3.20
2022-10-10T01:30:06.768Z,3.30
2022-10-10T01:32:39.033Z,3.10
2022-10-10T01:35:21.413Z,3.40
2022-10-10T01:37:54.601Z,3.23
2022-10-10T01:40:26.463Z,3.00
2022-10-10T01:42:55.968Z,3.00
2022-10-10T01:45:25.197Z,3.30
2022-10-10T01:47:53.380Z,2.90
2022-10-10T01:50:22.920Z,3.60
2022-10-10T01:52:58.488Z,3.03
2022-10-10T01:55:37.597Z,3.20
2022-10-10T01:58:16.087Z,3.37
2022-10-10T02:00:49.784Z,3.47
2022-10-10T02:03:20.828Z,3.50
2022-10-10T02:05:50.358Z,3.00
2022-10-10T02:08:22.215Z,3.40
2022-10-10T02:10:52.292Z,3.43
2022-10-10T02:13:20.451Z,3.03
2022-10-10T02:15:52.266Z,3.03
2022-10-10T02:18:24.002Z,3.10
2022-10-10T02:20:52.488Z,2.70
2022-10-10T02:23:21.894Z,3.03
2022-10-10T02:25:52.442Z,3.50
2022-10-10T02:28:23.025Z,2.93
2022-10-10T02:30:53.616Z,3.10
2022-10-10T02:33:24.426Z,2.17
2022-10-10T02:35:52.805Z,3.07
2022-10-10T02:38:20.569Z,3.03
2022-10-10T02:40:49.340Z,3.70
2022-10-10T02:43:17.763Z,3.07
2022-10-10T02:45:45.271Z,3.50
2022-10-10T02:48:14.396Z,4.23
2022-10-10T02:50:42.044Z,3.50
2022-10-10T02:53:09.531Z,3.23
2022-10-10T02:55:37.059Z,2.70
2022-10-10T02:58:04.545Z,3.30
2022-10-10T03:00:31.997Z,2.60
2022-10-10T03:02:59.489Z,2.90
2022-10-10T03:05:28.367Z,3.53
2022-10-10T03:07:55.859Z,3.20
2022-10-10T03:10:23.316Z,3.73
2022-10-10T03:12:51.050Z,3.67
2022-10-10T03:15:18.758Z,2.60
2022-10-10T03:17:46.249Z,3.77
2022-10-10T03:20:13.827Z,3.17
2022-10-10T03:22:42.656Z,2.97
2022-10-10T03:25:10.410Z,3.43
2022-10-10T03:27:37.874Z,2.50
2022-10-10T03:30:06.386Z,2.90
2022-10-10T03:32:33.855Z,3.10
2022-10-10T03:35:01.298Z,3.00
2022-10-10T03:37:28.880Z,2.60
2022-10-10T03:39:57.634Z,2.63
2022-10-10T03:42:25.185Z,3.40
2022-10-10T03:44:52.694Z,2.87
2022-10-10T03:47:20.179Z,2.73
2022-10-10T03:49:47.639Z,2.63
2022-10-10T03:52:15.121Z,3.53
2022-10-10T03:54:42.630Z,3.70
2022-10-10T03:57:11.437Z,3.23
2022-10-10T03:59:38.901Z,3.07
2022-10-10T04:02:06.372Z,2.70
2022-10-10T04:04:33.954Z,3.30
2022-10-10T04:07:01.463Z,2.83
2022-10-10T04:09:28.975Z,2.70
2022-10-10T04:11:56.829Z,2.90
2022-10-10T04:14:25.616Z,3.60
2022-10-10T04:16:53.080Z,3.10
2022-10-10T04:19:20.620Z,2.93
2022-10-10T04:21:48.060Z,2.90
2022-10-10T04:24:15.557Z,4.17
2022-10-10T04:26:43.031Z,4.33
2022-10-10T04:29:10.502Z,3.10
2022-10-10T04:31:39.413Z,3.60
2022-10-10T04:34:07.153Z,2.80
2022-10-10T04:36:34.634Z,3.07
2022-10-10T04:39:02.209Z,3.40
2022-10-10T04:41:29.674Z,3.80
2022-10-10T04:43:57.164Z,3.07
2022-10-10T04:46:24.665Z,3.40
2022-10-10T04:48:53.571Z,3.63
2022-10-10T04:51:21.126Z,3.70
2022-10-10T04:53:50.596Z,3.13
2022-10-10T04:56:18.355Z,3.20
2022-10-10T04:58:45.830Z,3.53
2022-10-10T05:01:13.331Z,3.70
2022-10-10T05:03:40.850Z,4.03
2022-10-10T05:06:09.682Z,3.57
2022-10-10T05:08:37.211Z,3.13
2022-10-10T05:11:04.653Z,3.53
2022-10-10T05:13:32.157Z,3.20
2022-10-10T05:16:00.705Z,3.67
2022-10-10T05:18:28.224Z,3.13
2022-10-10T05:20:58.716Z,3.40
2022-10-10T05:23:34.124Z,2.80
2022-10-10T05:26:01.576Z,3.40
2022-10-10T05:28:29.144Z,3.17
2022-10-10T05:30:56.680Z,3.60
2022-10-10T05:33:24.293Z,2.87
2022-10-10T05:35:51.760Z,3.20
2022-10-10T05:38:19.243Z,3.33
2022-10-10T05:40:48.053Z,2.60
2022-10-10T05:43:15.628Z,3.23
2022-10-10T05:45:43.768Z,3.90
2022-10-10T05:48:11.227Z,2.87
2022-10-10T05:50:41.207Z,3.20
2022-10-10T05:53:08.658Z,3.40
2022-10-10T05:55:36.610Z,3.60
2022-10-10T05:58:05.464Z,3.80
2022-10-10T06:00:32.971Z,3.80
2022-10-10T06:03:00.465Z,3.10
2022-10-10T06:05:28.045Z,3.50
2022-10-10T06:08:12.271Z,3.40
2022-10-10T06:10:42.864Z,3.23
2022-10-10T06:13:12.169Z,4.13
2022-10-10T06:15:39.745Z,3.60
2022-10-10T06:18:07.738Z,3.30
2022-10-10T06:20:36.404Z,4.30
2022-10-10T06:23:05.061Z,3.50
2022-10-10T06:25:41.961Z,3.17
2022-10-10T06:28:11.534Z,3.30
2022-10-10T06:30:42.325Z,3.53
2022-10-10T06:33:09.944Z,3.60
2022-10-10T06:35:40.323Z,3.40
2022-10-10T06:38:07.783Z,3.50
2022-10-10T06:40:35.416Z,3.30
2022-10-10T06:43:04.465Z,4.40
2022-10-10T06:45:37.213Z,3.70
2022-10-10T06:48:05.023Z,3.57
2022-10-10T06:50:32.558Z,4.60
2022-10-10T06:53:00.250Z,3.87
2022-10-10T06:55:28.001Z,3.83
2022-10-10T06:57:55.519Z,4.23
2022-10-10T07:00:23.015Z,4.60
2022-10-10T07:02:52.603Z,3.80
2022-10-10T07:05:20.327Z,3.73
2022-10-10T07:07:47.801Z,3.70
2022-10-10T07:10:16.669Z,4.70
2022-10-10T07:12:52.332Z,3.87
2022-10-10T07:15:19.906Z,4.13
2022-10-10T07:17:53.377Z,3.77
2022-10-10T07:20:23.127Z,4.67
2022-10-10T07:22:50.924Z,4.57
2022-10-10T07:25:18.665Z,4.03
2022-10-10T07:27:46.171Z,5.03
2022-10-10T07:30:14.916Z,4.43
2022-10-10T07:32:43.382Z,4.70
2022-10-10T07:35:11.889Z,4.70
2022-10-10T07:37:40.761Z,5.20
2022-10-10T07:40:09.853Z,5.00
2022-10-10T07:42:37.375Z,5.63
2022-10-10T07:45:05.738Z,5.03
2022-10-10T07:47:33.257Z,6.57
2022-10-10T07:50:00.707Z,7.10
2022-10-10T07:52:28.171Z,6.67
2022-10-10T07:54:57.033Z,6.77
2022-10-10T07:57:24.610Z,6.83
2022-10-10T07:59:52.066Z,6.63
2022-10-10T08:02:19.576Z,5.93
2022-10-10T08:04:47.056Z,6.60
2022-10-10T08:07:14.532Z,5.13
2022-10-10T08:09:42.231Z,5.10
2022-10-10T08:12:11.039Z,5.60
2022-10-10T08:14:38.629Z,5.40
2022-10-10T08:17:06.251Z,5.73
2022-10-10T08:19:33.732Z,6.70
2022-10-10T08:22:01.662Z,6.50
2022-10-10T08:24:29.264Z,6.47
2022-10-10T08:26:56.747Z,7.50
2022-10-10T08:29:25.715Z,7.73
2022-10-10T08:31:53.151Z,5.90
2022-10-10T08:34:20.628Z,5.90
2022-10-10T08:36:48.274Z,7.40
2022-10-10T08:39:17.204Z,6.27
2022-10-10T08:41:50.196Z,5.43
2022-10-10T08:44:22.488Z,6.40
2022-10-10T08:46:53.888Z,6.37
2022-10-10T08:49:25.410Z,5.93
2022-10-10T08:51:58.948Z,6.00
2022-10-10T08:54:27.007Z,6.10
2022-10-10T08:56:57.673Z,6.47
2022-10-10T08:59:28.050Z,7.47
2022-10-10T09:02:19.458Z,6.97
2022-10-10T09:04:50.905Z,7.17
2022-10-10T09:07:25.852Z,7.77
2022-10-10T09:10:01.100Z,7.13
2022-10-10T09:12:33.639Z,7.50
2022-10-10T09:15:06.733Z,7.53
2022-10-10T09:17:39.567Z,7.50
2022-10-10T09:20:31.240Z,6.43
2022-10-10T09:23:02.932Z,7.23
2022-10-10T09:25:32.753Z,7.47
2022-10-10T09:28:04.955Z,7.73
2022-10-10T09:30:34.369Z,7.37
2022-10-10T09:33:08.372Z,6.60
2022-10-10T09:35:38.846Z,7.20
2022-10-10T09:38:29.050Z,7.13
2022-10-10T09:41:00.139Z,6.80
2022-10-10T09:43:32.314Z,6.90
2022-10-10T09:46:00.453Z,6.00
2022-10-10T09:48:31.576Z,7.27
2022-10-10T09:50:59.907Z,6.67
2022-10-10T09:53:28.909Z,7.80
2022-10-10T09:55:56.584Z,7.47
2022-10-10T09:58:30.833Z,6.50
2022-10-10T10:01:12.514Z,6.40
2022-10-10T10:03:41.743Z,6.17
2022-10-10T10:06:16.097Z,6.87
2022-10-10T10:08:49.862Z,6.60
2022-10-10T10:11:29.901Z,5.10
2022-10-10T10:13:57.892Z,5.80
2022-10-10T10:16:32.020Z,6.20
2022-10-10T10:19:01.006Z,6.97
2022-10-10T10:21:28.743Z,6.40
2022-10-10T10:23:58.686Z,5.53
2022-10-10T10:26:29.545Z,6.03
2022-10-10T10:28:58.951Z,5.90
2022-10-10T10:31:49.107Z,6.00
2022-10-10T10:34:43.865Z,5.83
2022-10-10T10:37:19.774Z,5.77
2022-10-10T10:39:56.469Z,5.40
2022-10-10T10:42:33.801Z,5.40
2022-10-10T10:45:04.966Z,5.93
2022-10-10T10:47:40.880Z,6.13
2022-10-10T10:50:29.366Z,5.00
2022-10-10T10:53:00.479Z,4.93
2022-10-10T10:55:39.121Z,5.47
2022-10-10T11:01:33.460Z,5.33
2022-10-10T11:05:25.094Z,5.80
2022-10-10T11:07:18.485Z,5.33
2022-10-10T11:09:53.638Z,6.20
2022-10-10T11:12:31.908Z,6.13
2022-10-10T11:15:02.268Z,6.30
2022-10-10T11:17:37.223Z,5.80
2022-10-10T11:20:09.587Z,4.53
2022-10-10T11:22:46.358Z,5.63
2022-10-10T11:25:17.693Z,6.03
2022-10-10T11:27:47.891Z,5.30
2022-10-10T11:30:17.095Z,4.97
2022-10-10T11:32:50.618Z,4.70
2022-10-10T11:35:28.655Z,4.80
2022-10-10T11:38:02.011Z,4.80
2022-10-10T11:40:46.530Z,4.50
2022-10-10T11:43:19.772Z,4.60
2022-10-10T11:45:53.592Z,5.23
2022-10-10T11:48:27.874Z,5.00
2022-10-10T11:50:59.145Z,5.90
2022-10-10T11:53:32.500Z,4.50
2022-10-10T11:56:04.495Z,4.63
2022-10-10T11:58:35.412Z,4.67
2022-10-10T12:01:07.449Z,4.63
2022-10-10T12:03:35.055Z,5.20
2022-10-10T12:06:05.935Z,4.77
2022-10-10T12:08:37.828Z,4.83
2022-10-10T12:11:14.376Z,4.83
2022-10-10T12:13:44.093Z,4.67
2022-10-10T12:16:14.042Z,4.80
2022-10-10T12:18:44.083Z,4.30
2022-10-10T12:21:13.806Z,5.40
2022-10-10T12:23:43.407Z,4.37
2022-10-10T12:26:15.974Z,4.07
2022-10-10T12:29:01.639Z,4.80
2022-10-10T12:31:36.912Z,4.00
2022-10-10T12:34:15.246Z,3.93
2022-10-10T12:37:02.021Z,4.43
2022-10-10T12:39:40.282Z,4.17
2022-10-10T12:42:27.402Z,3.83
2022-10-10T12:44:54.976Z,4.17
2022-10-10T12:47:52.726Z,4.07
2022-10-10T12:50:24.001Z,3.77
2022-10-10T12:52:54.404Z,4.20
2022-10-10T12:55:26.013Z,3.67
2022-10-10T12:57:55.616Z,3.90
2022-10-10T13:00:24.900Z,4.00
2022-10-10T13:02:54.895Z,3.30
2022-10-10T13:05:27.425Z,3.40
2022-10-10T13:07:57.571Z,4.20
2022-10-10T13:10:28.295Z,3.43
2022-10-10T13:13:03.570Z,4.20
2022-10-10T13:15:32.020Z,3.13
2022-10-10T13:17:59.498Z,3.43
2022-10-10T13:20:30.398Z,3.63
2022-10-10T13:22:58.249Z,3.30
2022-10-10T13:25:27.449Z,3.53
2022-10-10T13:27:55.045Z,3.50
2022-10-10T13:30:24.110Z,3.13
2022-10-10T13:32:52.528Z,3.37
2022-10-10T13:35:22.482Z,3.37
2022-10-10T13:37:54.138Z,4.00
2022-10-10T13:40:21.785Z,3.27
2022-10-10T13:42:51.142Z,3.53
2022-10-10T13:45:38.080Z,2.87
2022-10-10T13:48:16.562Z,3.13
2022-10-10T13:51:09.603Z,4.00
2022-10-10T13:53:46.099Z,3.23
2022-10-10T13:56:17.451Z,3.70
2022-10-10T13:58:50.278Z,3.17
2022-10-10T14:01:30.963Z,2.50
2022-10-10T14:04:03.034Z,3.33
2022-10-10T14:06:30.516Z,2.97
2022-10-10T14:09:05.109Z,3.17
2022-10-10T14:11:34.697Z,2.80
2022-10-10T14:14:07.057Z,3.40
2022-10-10T14:16:34.627Z,3.30
2022-10-10T14:19:02.160Z,3.40
2022-10-10T14:21:29.638Z,3.53
2022-10-10T14:23:57.098Z,3.30
2022-10-10T14:26:24.558Z,4.53
2022-10-10T14:28:52.075Z,3.00
2022-10-10T14:31:21.150Z,2.60
2022-10-10T14:33:48.622Z,4.03
2022-10-10T14:36:16.156Z,2.50
2022-10-10T14:38:43.595Z,3.10
2022-10-10T14:41:13.053Z,2.77
2022-10-10T14:43:45.537Z,3.47
2022-10-10T14:46:18.309Z,3.63
2022-10-10T14:48:47.154Z,2.57
2022-10-10T14:51:33.769Z,3.43
2022-10-10T14:54:11.784Z,3.40
2022-10-10T14:57:07.378Z,2.77
2022-10-10T14:59:47.251Z,3.83
2022-10-10T15:02:17.828Z,3.23
2022-10-10T15:04:46.639Z,3.00
2022-10-10T15:07:15.173Z,3.10
2022-10-10T15:10:02.479Z,3.30
2022-10-10T15:12:30.875Z,3.00
2022-10-10T15:14:58.367Z,3.60
2022-10-10T15:17:27.137Z,4.00
2022-10-10T15:19:56.293Z,3.60
2022-10-10T15:22:23.882Z,3.47
2022-10-10T15:24:51.384Z,3.60
2022-10-10T15:27:18.860Z,3.40
2022-10-10T15:29:46.353Z,3.23
2022-10-10T15:32:13.789Z,3.20
2022-10-10T15:34:41.320Z,3.70
2022-10-10T15:37:10.524Z,3.13
2022-10-10T15:39:38.576Z,3.70
2022-10-10T15:42:12.739Z,3.30
2022-10-10T15:44:45.513Z,3.20
2022-10-10T15:47:13.310Z,3.20
2022-10-10T15:49:40.818Z,3.37
2022-10-10T15:52:10.270Z,3.80
2022-10-10T15:54:37.755Z,3.40
2022-10-10T15:57:05.461Z,3.30
2022-10-10T15:59:33.122Z,3.03
2022-10-10T16:02:00.651Z,3.50
2022-10-10T16:04:28.552Z,3.77
2022-10-10T16:09:46.045Z,4.30
2022-10-10T16:12:13.890Z,4.80
2022-10-10T16:14:41.626Z,6.13
2022-10-10T16:17:09.972Z,4.80
2022-10-10T16:19:38.354Z,3.97
2022-10-10T16:22:08.058Z,4.43
2022-10-10T16:24:36.147Z,4.50
2022-10-10T16:27:05.807Z,4.73
2022-10-10T16:29:33.579Z,4.40
2022-10-10T16:32:03.845Z,4.37
2022-10-10T16:34:34.494Z,4.03
2022-10-10T16:37:02.657Z,3.40
2022-10-10T16:39:30.514Z,4.23
2022-10-10T16:42:01.039Z,3.70
2022-10-10T16:44:36.663Z,3.57
2022-10-10T16:47:04.733Z,3.53
2022-10-10T16:49:33.313Z,4.10
2022-10-10T16:52:01.276Z,4.07
2022-10-10T16:54:29.263Z,4.50
2022-10-10T16:56:57.160Z,3.73
2022-10-10T16:59:25.335Z,3.63
2022-10-10T17:01:54.987Z,3.70
2022-10-10T17:04:23.312Z,3.33
2022-10-10T17:06:50.756Z,3.63
2022-10-10T17:09:18.251Z,3.80
2022-10-10T17:11:50.474Z,4.10
2022-10-10T17:14:18.782Z,4.03
2022-10-10T17:17:11.191Z,2.80
2022-10-10T17:19:35.211Z,4.07
2022-10-10T17:22:02.699Z,4.00
2022-10-10T17:24:30.225Z,4.60
2022-10-10T17:26:57.695Z,3.97
2022-10-10T17:29:25.190Z,4.30
2022-10-10T17:31:52.641Z,3.70
2022-10-10T17:34:20.227Z,4.10
2022-10-10T17:36:49.311Z,4.30
2022-10-10T17:39:16.793Z,4.00
2022-10-10T17:41:45.591Z,4.57
2022-10-10T17:44:13.557Z,4.00
2022-10-10T17:46:41.980Z,6.20
2022-10-10T17:49:11.507Z,6.27
2022-10-10T17:51:40.051Z,5.63
2022-10-10T17:54:09.880Z,5.60
2022-10-10T17:56:39.092Z,5.10
2022-10-10T17:59:06.771Z,5.23
2022-10-10T18:01:34.844Z,5.80
2022-10-10T18:04:02.909Z,5.70
2022-10-10T18:06:32.890Z,5.33
2022-10-10T18:09:00.982Z,7.53
2022-10-10T18:11:31.284Z,5.53
2022-10-10T18:14:01.274Z,5.67
2022-10-10T18:16:30.670Z,7.00
2022-10-10T18:18:59.258Z,6.17
2022-10-10T18:21:27.337Z,6.40
2022-10-10T18:23:55.249Z,5.90
2022-10-10T18:26:27.239Z,6.07
2022-10-10T18:28:57.000Z,7.40
2022-10-10T18:31:26.382Z,8.37
2022-10-10T18:33:54.461Z,7.60
2022-10-10T18:36:24.928Z,6.90
2022-10-10T18:38:52.784Z,6.97
2022-10-10T18:41:22.028Z,6.53
2022-10-10T18:43:50.398Z,6.00
2022-10-10T18:46:22.075Z,6.40
2022-10-10T18:48:53.791Z,5.80
2022-10-10T18:51:24.854Z,5.20
2022-10-10T18:53:53.470Z,6.10
2022-10-10T18:56:24.588Z,4.83
2022-10-10T18:58:54.582Z,5.00
2022-10-10T19:01:27.403Z,4.90
2022-10-10T19:03:56.194Z,5.23
2022-10-10T19:06:24.708Z,5.57
2022-10-10T19:08:55.752Z,4.83
2022-10-10T19:11:25.507Z,6.87
2022-10-10T19:13:53.504Z,3.50
2022-10-10T19:16:24.468Z,3.57
2022-10-10T19:18:55.208Z,4.37
2022-10-10T19:21:25.411Z,3.23
2022-10-10T19:23:53.205Z,4.33
2022-10-10T19:26:21.337Z,3.50
2022-10-10T19:28:48.928Z,3.43
2022-10-10T19:31:17.877Z,3.43
2022-10-10T19:33:51.450Z,3.43
2022-10-10T19:36:19.275Z,5.23
2022-10-10T19:38:46.916Z,2.43
2022-10-10T19:41:15.070Z,4.10
2022-10-10T19:43:43.360Z,3.10
2022-10-10T19:46:13.666Z,2.90
2022-10-10T19:48:41.920Z,3.87
2022-10-10T19:51:12.156Z,4.07
2022-10-10T19:53:40.840Z,3.57
2022-10-10T19:56:09.930Z,5.63
2022-10-10T19:58:37.830Z,4.80
2022-10-10T20:01:07.765Z,3.40
2022-10-10T20:03:35.547Z,3.30
2022-10-10T20:06:03.797Z,6.17
2022-10-10T20:08:33.269Z,4.40
2022-10-10T20:11:01.175Z,4.20
2022-10-10T20:13:28.854Z,4.47
2022-10-10T20:16:00.253Z,4.50
2022-10-10T20:18:28.124Z,3.90
2022-10-10T20:20:58.526Z,3.43
2022-10-10T20:23:26.563Z,4.90
2022-10-10T20:25:55.523Z,4.50
2022-10-10T20:28:23.557Z,3.47
2022-10-10T20:30:52.148Z,4.50
2022-10-10T20:33:21.006Z,3.33
2022-10-10T20:35:53.602Z,4.67
2022-10-10T20:38:23.521Z,4.13
2022-10-10T20:40:51.169Z,4.07
2022-10-10T20:43:20.179Z,4.30
2022-10-10T20:45:47.903Z,4.40
2022-10-10T20:48:15.442Z,4.47
2022-10-10T20:50:43.091Z,4.07
2022-10-10T20:53:10.816Z,3.83
2022-10-10T20:55:38.446Z,5.00
2022-10-10T20:58:07.060Z,3.90
2022-10-10T21:00:37.639Z,4.40
2022-10-10T21:03:05.290Z,3.60
2022-10-10T21:05:32.840Z,5.17
2022-10-10T21:08:01.154Z,4.30
2022-10-10T21:10:29.994Z,3.47
2022-10-10T21:12:57.876Z,4.50
2022-10-10T21:15:25.531Z,5.70
2022-10-10T21:17:55.477Z,6.07
2022-10-10T21:20:23.144Z,4.77
2022-10-10T21:22:50.746Z,4.53
2022-10-10T21:25:18.453Z,4.80
2022-10-10T21:27:46.058Z,5.30
2022-10-10T21:30:13.641Z,4.73
2022-10-10T21:32:43.407Z,4.23
2022-10-10T21:35:12.340Z,4.63
2022-10-10T21:37:39.906Z,5.67
2022-10-10T21:40:08.545Z,4.10
2022-10-10T21:42:36.166Z,3.70
2022-10-10T21:45:04.086Z,4.57
2022-10-10T21:47:31.721Z,5.10
2022-10-10T21:49:59.364Z,3.73
2022-10-10T21:52:28.883Z,5.10
2022-10-10T21:54:56.569Z,4.87
2022-10-10T21:57:24.164Z,4.60
2022-10-10T21:59:51.696Z,4.93
2022-10-10T22:02:19.250Z,4.77
2022-10-10T22:04:51.097Z,3.80
2022-10-10T22:07:18.807Z,5.43
2022-10-10T22:09:47.867Z,5.10
2022-10-10T22:12:16.444Z,5.03
2022-10-10T22:14:44.042Z,4.37
2022-10-10T22:17:11.752Z,3.77
2022-10-10T22:19:39.388Z,5.43
2022-10-10T22:22:06.997Z,6.53
2022-10-10T22:24:34.544Z,4.93
2022-10-10T22:27:03.429Z,5.10
2022-10-10T22:29:30.925Z,5.03
2022-10-10T22:31:58.395Z,4.80
2022-10-10T22:34:25.915Z,4.83
2022-10-10T22:36:53.773Z,4.50
2022-10-10T22:39:21.713Z,3.87
2022-10-10T22:41:49.169Z,4.27
2022-10-10T22:44:17.964Z,5.03
2022-10-10T22:46:45.432Z,4.50
2022-10-10T22:49:13.122Z,4.83
2022-10-10T22:51:40.775Z,4.83
2022-10-10T22:54:08.230Z,4.50
2022-10-10T22:56:35.710Z,6.40
2022-10-10T22:59:03.145Z,5.50
2022-10-10T23:01:32.067Z,5.50
2022-10-10T23:04:03.262Z,4.67
2022-10-10T23:06:30.771Z,5.37
2022-10-10T23:08:58.232Z,4.77
2022-10-10T23:11:25.725Z,4.80
2022-10-10T23:13:53.230Z,5.87
2022-10-10T23:16:20.763Z,5.50
2022-10-10T23:18:49.561Z,6.13
2022-10-10T23:21:17.399Z,6.47
2022-10-10T23:23:44.868Z,5.90
2022-10-10T23:26:12.522Z,6.37
2022-10-10T23:28:40.187Z,5.90
2022-10-10T23:31:09.603Z,5.20
2022-10-10T23:33:37.396Z,7.60
2022-10-10T23:36:08.681Z,6.17
2022-10-10T23:38:36.878Z,6.70
2022-10-10T23:41:04.577Z,5.43
2022-10-10T23:43:32.035Z,5.50
2022-10-10T23:45:59.509Z,5.43
2022-10-10T23:48:27.007Z,5.50
2022-10-10T23:50:54.500Z,5.27
2022-10-10T23:53:23.286Z,4.30
2022-10-10T23:55:50.783Z,4.80
2022-10-10T23:58:18.239Z,4.03
